Time;durP1;ratioP1;P1;durP2;ratioP2;P2;SDS_P1;SDS_P2;PMS_P1;PMS_P2;Temp;Humidity;BMP_temperature;BMP_pressure;BME280_temperature;BME280_humidity;BME280_pressure;Samples;Min_cycle;Max_cycle;Signal;HPM_P1;HPM_P2
2022/02/27 00:01:06;;;;;;;8.88;3.33;;;;;;;1.88;66.29;101071.81;5027077;28;20037;-73
2022/02/27 00:03:31;;;;;;;9.98;2.80;;;;;;;1.89;66.13;101065.75;5011104;28;20497;-74
2022/02/27 00:06:01;;;;;;;13.93;3.60;;;;;;;1.93;65.40;101056.25;5011294;28;20030;-73
2022/02/27 00:08:26;;;;;;;8.23;3.03;;;;;;;2.00;64.44;101059.78;5011683;28;20432;-76
2022/02/27 00:10:52;;;;;;;14.27;3.35;;;;;;;2.05;64.37;101058.06;5030759;28;20041;-77
2022/02/27 00:13:17;;;;;;;5.78;3.33;;;;;;;2.13;63.73;101056.38;5031378;28;20045;-73
2022/02/27 00:15:42;;;;;;;14.93;2.50;;;;;;;2.16;63.30;101056.38;5030611;28;20033;-75
2022/02/27 00:18:08;;;;;;;8.10;2.60;;;;;;;2.22;62.98;101056.44;5030192;28;20037;-74
2022/02/27 00:20:33;;;;;;;9.32;2.58;;;;;;;2.24;63.09;101057.31;5030540;28;20065;-74
2022/02/27 00:22:59;;;;;;;7.97;2.67;;;;;;;2.28;63.01;101060.78;5030491;28;20026;-76
2022/02/27 00:25:24;;;;;;;10.18;3.65;;;;;;;2.29;62.59;101054.72;5030511;28;20037;-75
2022/02/27 00:27:50;;;;;;;8.32;2.83;;;;;;;2.29;62.52;101049.50;5028243;28;20497;-75
2022/02/27 00:30:15;;;;;;;10.85;2.88;;;;;;;2.31;62.51;101047.78;5030540;28;20052;-75
2022/02/27 00:32:41;;;;;;;8.73;3.15;;;;;;;2.31;62.55;101046.09;5029945;28;20037;-74
2022/02/27 00:35:07;;;;;;;9.18;2.72;;;;;;;2.29;62.56;101044.31;5030581;28;20097;-73
2022/02/27 00:37:33;;;;;;;6.13;2.67;;;;;;;2.27;62.10;101040.84;5029976;28;20041;-74
2022/02/27 00:39:59;;;;;;;6.43;2.40;;;;;;;2.29;61.67;101036.50;5029045;28;20045;-75
2022/02/27 00:42:24;;;;;;;8.80;3.17;;;;;;;2.29;61.53;101029.59;5030625;28;20041;-73
2022/02/27 00:44:49;;;;;;;6.88;2.90;;;;;;;2.33;61.53;101031.31;5032096;28;20104;-74
2022/02/27 00:47:15;;;;;;;7.03;3.22;;;;;;;2.36;61.13;101030.47;5032193;28;20095;-74
2022/02/27 00:49:40;;;;;;;5.15;2.67;;;;;;;2.38;61.17;101030.47;5029301;28;20509;-72
2022/02/27 00:52:06;;;;;;;13.15;3.33;;;;;;;2.36;61.05;101022.66;5029237;28;20036;-74
2022/02/27 00:54:31;;;;;;;6.80;3.03;;;;;;;2.39;60.66;101029.59;5012040;28;20034;-72
2022/02/27 00:56:57;;;;;;;6.03;2.45;;;;;;;2.41;60.92;101027.88;5029395;28;20033;-73
2022/02/27 00:59:22;;;;;;;8.45;3.78;;;;;;;2.42;60.38;101020.09;5029850;28;20049;-73
2022/02/27 01:01:48;;;;;;;9.48;4.57;;;;;;;2.42;60.42;101019.22;5029915;28;20037;-73
2022/02/27 01:04:13;;;;;;;8.60;4.15;;;;;;;2.40;60.77;101016.63;5017689;28;20890;-74
2022/02/27 01:06:38;;;;;;;11.35;4.45;;;;;;;2.41;60.83;101015.72;5008184;28;20041;-74
2022/02/27 01:09:07;;;;;;;9.13;3.50;;;;;;;2.41;60.07;101012.28;5003527;28;20041;-75
2022/02/27 01:11:34;;;;;;;10.93;2.63;;;;;;;2.38;60.00;101012.25;5015686;28;20525;-74
2022/02/27 01:14:01;;;;;;;7.60;2.53;;;;;;;2.37;59.99;101008.81;5021909;28;20041;-74
2022/02/27 01:16:26;;;;;;;7.25;2.95;;;;;;;2.37;60.10;101016.59;5008842;28;20029;-74
2022/02/27 01:18:52;;;;;;;7.10;2.55;;;;;;;2.34;59.86;101004.47;5012067;28;20596;-74
2022/02/27 01:21:20;;;;;;;6.00;2.60;;;;;;;2.34;60.30;101019.19;5015146;28;20053;-74
2022/02/27 01:23:47;;;;;;;7.80;2.22;;;;;;;2.33;59.48;101018.31;5004482;28;20516;-74
2022/02/27 01:26:13;;;;;;;9.05;3.15;;;;;;;2.34;59.45;101016.59;5003179;28;20559;-74
2022/02/27 01:28:39;;;;;;;7.57;2.40;;;;;;;2.36;58.94;101025.25;5002648;28;20080;-75
2022/02/27 01:31:07;;;;;;;6.32;3.08;;;;;;;2.37;59.18;101027.00;5011191;28;20037;-74
2022/02/27 01:33:33;;;;;;;6.40;2.67;;;;;;;2.38;59.73;101027.88;5021917;28;20034;-72
2022/02/27 01:35:59;;;;;;;6.45;2.70;;;;;;;2.31;61.18;101025.28;4991103;28;20065;-75
2022/02/27 01:38:24;;;;;;;12.35;2.42;;;;;;;2.29;59.31;101028.69;4996078;28;20037;-73
2022/02/27 01:40:50;;;;;;;6.43;2.70;;;;;;;2.30;59.78;101038.25;4976584;28;20037;-74
2022/02/27 01:43:15;;;;;;;9.02;4.68;;;;;;;2.23;60.07;101026.94;5024263;28;20045;-74
2022/02/27 01:45:41;;;;;;;4.40;2.15;;;;;;;2.25;59.40;101032.16;5028002;28;20033;-74
2022/02/27 01:48:06;;;;;;;6.82;2.80;;;;;;;2.28;59.34;101032.16;5020606;28;20602;-72
2022/02/27 01:50:32;;;;;;;6.43;2.28;;;;;;;2.28;59.62;101030.44;4996744;28;20515;-74
2022/02/27 01:52:57;;;;;;;9.15;3.45;;;;;;;2.28;58.90;101030.44;5023539;28;20127;-73
2022/02/27 01:55:23;;;;;;;6.40;2.78;;;;;;;2.29;59.50;101037.41;5023189;28;20515;-73
2022/02/27 01:57:49;;;;;;;7.47;2.10;;;;;;;2.29;58.90;101032.19;5030580;28;20659;-74
2022/02/27 02:00:15;;;;;;;6.95;2.42;;;;;;;2.30;58.74;101027.84;5026450;28;20077;-74
2022/02/27 02:02:43;;;;;;;8.15;3.75;;;;;;;2.33;58.41;101027.84;4992862;28;20076;-75
2022/02/27 02:05:08;;;;;;;6.28;2.17;;;;;;;2.33;58.21;101022.66;5025735;28;20554;-73
2022/02/27 02:07:34;;;;;;;9.18;2.80;;;;;;;2.35;58.29;101021.78;5022155;28;20034;-75
2022/02/27 02:10:00;;;;;;;5.63;2.72;;;;;;;2.37;58.24;101024.41;5031298;28;20038;-72
2022/02/27 02:12:26;;;;;;;9.15;2.90;;;;;;;2.34;58.36;101020.06;5034867;28;20040;-74
2022/02/27 02:14:51;;;;;;;6.35;2.13;;;;;;;2.26;60.07;101016.53;5038620;28;20050;-74
2022/02/27 02:17:17;;;;;;;4.07;1.98;;;;;;;2.20;59.52;101016.53;5037749;28;20045;-73
2022/02/27 02:19:42;;;;;;;6.70;2.33;;;;;;;2.16;60.40;101012.16;5032812;28;20037;-74
2022/02/27 02:22:07;;;;;;;6.78;2.55;;;;;;;2.13;60.20;101015.63;5029077;28;20444;-73
2022/02/27 02:24:33;;;;;;;6.50;3.13;;;;;;;2.11;59.42;101006.94;5027386;28;20044;-74
2022/02/27 02:26:59;;;;;;;8.35;2.28;;;;;;;2.11;59.33;101009.53;5027163;28;20037;-73
2022/02/27 02:29:25;;;;;;;10.93;2.67;;;;;;;2.08;60.29;101003.47;5028594;28;20546;-76
2022/02/27 02:31:55;;;;;;;7.80;2.28;;;;;;;2.04;60.37;101005.16;5028070;28;20038;-73
2022/02/27 02:34:22;;;;;;;6.72;2.47;;;;;;;2.02;61.47;101004.31;5026831;28;20033;-73
2022/02/27 02:36:48;;;;;;;7.03;2.42;;;;;;;1.93;61.39;101002.50;5027870;28;20045;-74
2022/02/27 02:39:16;;;;;;;11.25;3.22;;;;;;;1.88;60.94;100996.41;5029085;28;20037;-74
2022/02/27 02:41:41;;;;;;;7.78;2.25;;;;;;;1.84;61.63;100992.03;5032276;28;20554;-73
2022/02/27 02:44:08;;;;;;;11.52;3.90;;;;;;;1.79;62.42;100993.75;5028911;28;20033;-75
2022/02/27 02:46:37;;;;;;;6.97;2.67;;;;;;;1.71;62.70;100998.03;5030701;28;20029;-74
2022/02/27 02:49:04;;;;;;;6.70;2.35;;;;;;;1.67;62.67;100993.69;5032250;28;20068;-73
2022/02/27 02:51:30;;;;;;;8.07;2.42;;;;;;;1.65;62.30;100991.09;5030355;28;20044;-74
2022/02/27 02:53:55;;;;;;;6.15;2.45;;;;;;;1.63;62.11;100985.00;5023798;28;20065;-74
2022/02/27 02:56:21;;;;;;;7.03;2.72;;;;;;;1.62;62.18;100984.97;5030410;28;20041;-74
2022/02/27 02:58:47;;;;;;;9.77;3.55;;;;;;;1.57;62.92;100989.28;5032230;28;20448;-74
2022/02/27 03:01:15;;;;;;;8.45;2.65;;;;;;;1.49;63.08;100987.50;5031780;28;20045;-74
2022/02/27 03:03:42;;;;;;;5.50;2.50;;;;;;;1.44;63.08;100991.78;5031066;28;20037;-74
2022/02/27 03:06:11;;;;;;;6.75;2.45;;;;;;;1.39;63.60;100987.44;5031826;28;20603;-74
2022/02/27 03:08:44;;;;;;;3.55;2.42;;;;;;;1.33;63.53;100984.75;5031650;28;20045;-74
2022/02/27 03:11:10;;;;;;;9.38;2.45;;;;;;;1.23;64.11;100984.72;5031851;28;20033;-74
2022/02/27 03:13:35;;;;;;;9.73;2.38;;;;;;;1.18;64.90;100985.50;5032051;28;20401;-74
2022/02/27 03:16:01;;;;;;;7.40;2.88;;;;;;;1.12;64.92;100990.66;5031384;28;20089;-74
2022/02/27 03:18:27;;;;;;;9.50;2.70;;;;;;;1.09;64.69;100985.47;5014110;28;20065;-73
2022/02/27 03:20:52;;;;;;;6.88;2.25;;;;;;;1.06;65.13;100981.09;5031722;28;20048;-73
2022/02/27 03:23:18;;;;;;;10.10;2.85;;;;;;;0.97;65.89;100981.88;5030335;28;20063;-73
2022/02/27 03:25:43;;;;;;;6.43;2.45;;;;;;;0.89;65.82;100985.25;5029773;28;20489;-73
2022/02/27 03:28:09;;;;;;;12.60;3.00;;;;;;;0.79;66.53;100977.41;5030767;28;20048;-73
2022/02/27 03:30:36;;;;;;;5.85;2.90;;;;;;;0.77;66.10;100973.91;5030775;28;20037;-73
2022/02/27 03:33:03;;;;;;;5.15;2.78;;;;;;;0.74;67.00;100980.78;5031523;28;20037;-74
2022/02/27 03:35:29;;;;;;;6.35;2.72;;;;;;;0.67;67.47;100981.59;5030010;28;20125;-73
2022/02/27 03:37:55;;;;;;;11.82;3.03;;;;;;;0.60;67.72;100978.91;5030833;28;20533;-73
2022/02/27 03:40:21;;;;;;;7.93;2.85;;;;;;;0.54;68.57;100976.28;5017399;28;20632;-72
2022/02/27 03:42:47;;;;;;;5.38;2.50;;;;;;;0.50;68.33;100971.91;5011598;28;20041;-71
2022/02/27 03:45:15;;;;;;;9.15;2.65;;;;;;;0.47;68.17;100974.47;5011391;28;20179;-71
2022/02/27 03:47:42;;;;;;;6.88;2.47;;;;;;;0.43;68.21;100976.13;5011382;28;20035;-72
2022/02/27 03:50:09;;;;;;;4.18;3.13;;;;;;;0.35;69.15;100976.91;5028987;28;20039;-73
2022/02/27 03:52:37;;;;;;;6.93;2.83;;;;;;;0.31;69.19;100972.53;5031299;28;20033;-72
2022/02/27 03:55:04;;;;;;;11.73;2.92;;;;;;;0.19;69.33;100968.94;5031025;28;20069;-71
2022/02/27 03:57:30;;;;;;;5.55;2.60;;;;;;;0.17;69.20;100964.59;5030380;28;20072;-71
2022/02/27 03:59:55;;;;;;;6.50;2.70;;;;;;;0.16;69.33;100962.84;5012601;28;20037;-72
2022/02/27 04:02:21;;;;;;;8.70;2.47;;;;;;;0.10;69.84;100958.47;5030827;28;20039;-72
2022/02/27 04:04:46;;;;;;;5.07;2.60;;;;;;;0.11;69.93;100970.56;5029572;28;20064;-72
2022/02/27 04:07:11;;;;;;;5.90;2.03;;;;;;;0.13;70.24;100973.19;5019850;28;20117;-72
2022/02/27 04:09:37;;;;;;;8.02;2.47;;;;;;;0.08;69.65;100975.72;5019554;28;20047;-71
2022/02/27 04:12:02;;;;;;;6.60;2.40;;;;;;;-0.02;70.20;100974.75;5029454;28;20489;-72
2022/02/27 04:14:28;;;;;;;8.73;2.28;;;;;;;-0.07;70.99;100970.34;5031526;28;20059;-72
2022/02/27 04:16:55;;;;;;;4.40;2.10;;;;;;;-0.06;70.81;100972.06;5029798;28;20049;-73
2022/02/27 04:19:20;;;;;;;4.93;2.38;;;;;;;-0.12;70.84;100977.19;5014574;28;20045;-71
2022/02/27 04:21:45;;;;;;;9.68;4.28;;;;;;;-0.15;71.22;100969.34;5030041;28;20037;-72
2022/02/27 04:24:11;;;;;;;4.90;2.50;;;;;;;-0.13;70.27;100972.84;5031112;28;20037;-72
2022/02/27 04:26:36;;;;;;;5.10;2.30;;;;;;;-0.20;71.51;100973.59;5029819;28;20057;-71
2022/02/27 04:29:02;;;;;;;3.40;1.90;;;;;;;-0.23;70.82;100969.25;5030065;28;21668;-72
2022/02/27 04:31:28;;;;;;;3.35;1.92;;;;;;;-0.26;70.69;100966.63;5030017;28;20041;-73
2022/02/27 04:33:53;;;;;;;9.13;2.22;;;;;;;-0.29;70.89;100964.00;5030299;28;20041;-73
2022/02/27 04:36:19;;;;;;;7.68;3.33;;;;;;;-0.37;71.54;100963.91;5012741;28;20087;-73
2022/02/27 04:38:44;;;;;;;3.97;2.35;;;;;;;-0.41;71.81;100969.88;5029730;28;20116;-73
2022/02/27 04:41:09;;;;;;;6.53;2.15;;;;;;;-0.46;72.36;100971.53;5028643;28;20447;-73
2022/02/27 04:43:35;;;;;;;8.40;2.50;;;;;;;-0.46;71.89;100974.13;5029062;28;20044;-73
2022/02/27 04:46:00;;;;;;;5.00;1.90;;;;;;;-0.46;71.83;100974.13;5028129;28;20041;-73
2022/02/27 04:48:25;;;;;;;8.77;2.40;;;;;;;-0.48;71.53;100968.91;5029973;28;20049;-72
2022/02/27 04:50:51;;;;;;;11.40;2.20;;;;;;;-0.49;72.13;100962.00;5029550;28;20034;-73
2022/02/27 04:53:56;;;;;;;7.25;3.17;;;;;;;-0.52;72.56;100963.66;5019966;28;20037;-73
2022/02/27 04:56:21;;;;;;;4.65;2.65;;;;;;;-0.55;72.33;100963.63;5018392;28;20505;-73
2022/02/27 04:58:47;;;;;;;9.65;2.58;;;;;;;-0.53;72.13;100967.09;5028248;28;20112;-73
2022/02/27 05:01:12;;;;;;;7.30;2.63;;;;;;;-0.52;72.21;100972.28;4999436;28;20092;-73
2022/02/27 05:03:38;;;;;;;5.53;2.60;;;;;;;-0.50;71.93;100965.41;5000402;28;20452;-73
2022/02/27 05:06:03;;;;;;;5.32;2.08;;;;;;;-0.51;71.96;100968.00;5009783;28;20672;-74
2022/02/27 05:08:29;;;;;;;4.65;2.25;;;;;;;-0.54;72.27;100958.47;5010135;28;20050;-75
2022/02/27 05:10:54;;;;;;;6.28;2.53;;;;;;;-0.57;72.82;100960.13;4992513;28;20040;-74
2022/02/27 05:13:19;;;;;;;5.90;2.38;;;;;;;-0.59;72.55;100954.94;5009405;28;20042;-74
2022/02/27 05:15:45;;;;;;;5.50;2.42;;;;;;;-0.57;72.31;100955.81;5010139;28;20042;-74
2022/02/27 05:18:10;;;;;;;5.90;2.70;;;;;;;-0.58;72.57;100956.66;5008401;28;20448;-73
2022/02/27 05:20:35;;;;;;;7.60;4.07;;;;;;;-0.57;72.89;100942.00;5009894;28;20038;-73
2022/02/27 05:23:01;;;;;;;7.43;2.47;;;;;;;-0.58;72.52;100946.31;5011014;28;20049;-74
2022/02/27 05:25:26;;;;;;;8.60;3.63;;;;;;;-0.51;72.23;100949.88;5010781;28;20125;-75
2022/02/27 05:27:53;;;;;;;4.60;1.92;;;;;;;-0.46;72.42;100950.81;5011574;28;20033;-73
2022/02/27 05:30:22;;;;;;;5.82;2.65;;;;;;;-0.41;72.06;100935.34;5001180;28;20038;-73
2022/02/27 05:32:48;;;;;;;12.85;3.10;;;;;;;-0.35;72.13;100938.00;4993818;28;20034;-72
2022/02/27 05:35:13;;;;;;;7.28;2.38;;;;;;;-0.25;71.61;100938.16;5010012;28;20112;-73
2022/02/27 05:37:39;;;;;;;8.35;3.95;;;;;;;-0.08;70.77;100929.72;5011963;28;20042;-74
2022/02/27 05:40:06;;;;;;;9.25;3.58;;;;;;;0.04;70.48;100932.47;5029103;28;20083;-74
2022/02/27 05:42:32;;;;;;;10.15;3.70;;;;;;;0.26;69.02;100935.31;5029057;28;20042;-74
2022/02/27 05:44:57;;;;;;;9.48;3.45;;;;;;;0.39;69.13;100932.88;5029508;28;20064;-74
2022/02/27 05:47:23;;;;;;;11.25;4.72;;;;;;;0.53;67.53;100930.41;5029039;28;20042;-74
2022/02/27 05:49:48;;;;;;;7.38;3.63;;;;;;;0.70;66.64;100930.56;5027997;28;20037;-74
2022/02/27 05:52:14;;;;;;;7.10;2.90;;;;;;;0.89;65.64;100935.91;5032221;28;20040;-74
2022/02/27 05:54:39;;;;;;;6.70;4.05;;;;;;;1.07;64.63;100938.69;5035773;28;20083;-74
2022/02/27 05:57:26;;;;;;;7.80;2.90;;;;;;;1.18;64.90;100936.16;5037922;28;20499;-74
2022/02/27 05:59:52;;;;;;;12.70;4.80;;;;;;;1.25;63.68;100932.75;5027555;28;20102;-73
2022/02/27 06:02:17;;;;;;;5.60;3.50;;;;;;;1.29;63.58;100931.94;5012400;28;20494;-74
2022/02/27 06:04:43;;;;;;;11.02;4.40;;;;;;;1.32;64.06;100931.94;5012128;28;20087;-74
2022/02/27 06:07:09;;;;;;;12.68;4.07;;;;;;;1.30;64.05;100938.84;5007773;28;20038;-75
2022/02/27 06:09:35;;;;;;;8.07;2.80;;;;;;;1.26;64.09;100937.13;5009220;28;20038;-74
2022/02/27 06:12:00;;;;;;;4.47;2.63;;;;;;;1.24;63.86;100936.22;5010589;28;20397;-75
2022/02/27 06:14:25;;;;;;;13.18;4.45;;;;;;;1.27;62.92;100941.44;5015354;28;20644;-75
2022/02/27 06:16:51;;;;;;;8.23;4.00;;;;;;;1.32;63.23;100942.34;5018771;28;20037;-76
2022/02/27 06:19:16;;;;;;;9.65;3.75;;;;;;;1.35;62.64;100941.50;5043883;28;20550;-74
2022/02/27 06:21:41;;;;;;;6.05;2.90;;;;;;;1.36;63.22;100936.31;5025876;28;20038;-74
2022/02/27 06:24:07;;;;;;;8.77;3.97;;;;;;;1.32;63.18;100942.34;5047684;28;20025;-75
2022/02/27 06:26:34;;;;;;;17.35;4.30;;;;;;;1.31;63.32;100943.22;5040181;28;20034;-75
2022/02/27 06:29:01;;;;;;;6.97;3.80;;;;;;;1.29;63.49;100939.72;5032784;28;20037;-74
2022/02/27 06:31:26;;;;;;;9.85;4.50;;;;;;;1.26;63.39;100942.31;5030191;28;20044;-74
2022/02/27 06:33:51;;;;;;;6.82;2.83;;;;;;;1.27;62.59;100936.25;5032076;28;20349;-74
2022/02/27 06:36:17;;;;;;;6.18;2.78;;;;;;;1.31;62.07;100945.81;5032190;28;20033;-72
2022/02/27 06:38:42;;;;;;;5.45;2.97;;;;;;;1.33;62.39;100944.09;5031489;28;20045;-74
2022/02/27 06:41:07;;;;;;;7.68;3.08;;;;;;;1.36;61.76;100946.72;5032354;28;20084;-75
2022/02/27 06:43:33;;;;;;;6.60;3.28;;;;;;;1.37;62.79;100948.44;5032569;28;22762;-75
2022/02/27 06:46:02;;;;;;;6.25;3.42;;;;;;;1.37;62.09;100953.63;5032477;28;20033;-75
2022/02/27 06:48:27;;;;;;;7.80;2.67;;;;;;;1.37;63.07;100950.16;5032291;28;20038;-74
2022/02/27 06:50:53;;;;;;;6.80;3.17;;;;;;;1.34;62.85;100961.41;5031955;28;20039;-75
2022/02/27 06:53:18;;;;;;;5.93;2.92;;;;;;;1.34;62.42;100956.22;5032779;28;20044;-75
2022/02/27 06:55:44;;;;;;;8.10;2.80;;;;;;;1.33;63.60;100958.78;5032011;28;20149;-74
2022/02/27 06:58:09;;;;;;;6.07;3.67;;;;;;;1.33;63.14;100962.28;5032162;28;20448;-76
2022/02/27 07:00:34;;;;;;;6.72;3.38;;;;;;;1.29;63.16;100956.19;5031864;28;20112;-76
2022/02/27 07:03:00;;;;;;;6.43;3.42;;;;;;;1.42;60.20;100964.91;5013792;28;20226;-74
2022/02/27 07:05:25;;;;;;;9.27;2.95;;;;;;;1.49;61.57;100966.72;5032229;28;20460;-75
2022/02/27 07:07:50;;;;;;;9.43;3.15;;;;;;;1.65;59.47;100970.28;5013890;28;20033;-74
2022/02/27 07:10:17;;;;;;;16.67;4.25;;;;;;;1.72;60.17;100960.78;5032022;28;20029;-74
2022/02/27 07:12:44;;;;;;;8.15;3.13;;;;;;;1.79;60.28;100965.16;5032222;28;20037;-74
2022/02/27 07:15:10;;;;;;;5.15;3.10;;;;;;;1.85;58.83;100966.94;5033183;28;20056;-74
2022/02/27 07:17:35;;;;;;;6.95;3.00;;;;;;;1.93;59.81;100966.09;5033914;28;20034;-75
2022/02/27 07:20:04;;;;;;;10.52;3.53;;;;;;;2.00;59.06;100967.00;5032972;28;20040;-75
2022/02/27 07:22:30;;;;;;;6.78;2.75;;;;;;;2.11;58.25;100964.44;5032826;28;20037;-74
2022/02/27 07:24:57;;;;;;;7.15;2.90;;;;;;;2.21;58.00;100966.22;5031341;28;20035;-74
2022/02/27 07:27:23;;;;;;;7.85;4.25;;;;;;;2.28;57.53;100972.31;5031343;28;20083;-74
2022/02/27 07:29:48;;;;;;;6.90;3.53;;;;;;;2.39;57.46;100962.84;5025018;28;20120;-74
2022/02/27 07:32:14;;;;;;;12.38;3.40;;;;;;;2.48;56.40;100968.03;5030557;28;20040;-74
2022/02/27 07:34:43;;;;;;;8.80;3.22;;;;;;;2.58;55.92;100967.22;5025549;28;20026;-74
2022/02/27 07:37:08;;;;;;;9.77;3.13;;;;;;;2.70;55.25;100966.38;5029632;28;20026;-74
2022/02/27 07:40:02;;;;;;;5.30;2.75;;;;;;;2.82;54.99;100970.75;5034148;28;20097;-74
2022/02/27 07:42:27;;;;;;;6.13;2.95;;;;;;;2.87;55.75;100978.56;5026668;28;20034;-74
2022/02/27 07:44:55;;;;;;;12.50;3.25;;;;;;;2.93;54.76;100982.06;5032017;28;20067;-73
2022/02/27 07:47:21;;;;;;;5.13;2.97;;;;;;;3.02;54.18;100975.97;5029964;28;20033;-73
2022/02/27 07:49:46;;;;;;;7.75;2.67;;;;;;;3.11;53.24;100985.53;5029544;28;20044;-73
2022/02/27 07:52:13;;;;;;;9.07;2.90;;;;;;;3.21;53.27;100988.13;5034433;28;20041;-73
2022/02/27 07:54:38;;;;;;;5.85;2.50;;;;;;;3.28;53.35;100994.22;5035326;28;20034;-75
2022/02/27 07:57:03;;;;;;;4.88;2.60;;;;;;;3.33;53.43;100982.06;5025352;28;20048;-76
2022/02/27 07:59:29;;;;;;;4.53;2.72;;;;;;;3.42;52.10;100983.78;5016203;28;20622;-74
2022/02/27 08:01:54;;;;;;;5.25;2.47;;;;;;;3.51;52.52;100983.78;5016710;28;20093;-74
2022/02/27 08:04:19;;;;;;;6.55;2.42;;;;;;;3.59;52.14;100984.66;5025522;28;20441;-74
2022/02/27 08:06:45;;;;;;;7.53;3.53;;;;;;;3.68;51.46;100986.38;5023697;28;20088;-74
2022/02/27 08:09:23;;;;;;;5.75;2.72;;;;;;;3.76;51.52;100979.38;5021540;28;20106;-74
2022/02/27 08:11:49;;;;;;;5.28;2.50;;;;;;;3.82;50.81;100981.13;5014869;28;20121;-75
2022/02/27 08:14:14;;;;;;;5.00;2.45;;;;;;;3.88;50.56;100979.34;5016950;28;20094;-76
2022/02/27 08:16:39;;;;;;;5.47;2.75;;;;;;;3.98;49.89;100974.13;5020591;28;20064;-76
2022/02/27 08:19:05;;;;;;;10.38;3.03;;;;;;;4.09;50.20;100964.53;5011929;28;20118;-75
2022/02/27 08:21:30;;;;;;;6.18;2.50;;;;;;;4.17;50.14;100978.41;5017058;28;20045;-75
2022/02/27 08:23:56;;;;;;;5.57;2.53;;;;;;;4.24;49.75;100974.03;5028417;28;20108;-74
2022/02/27 08:26:21;;;;;;;3.40;2.03;;;;;;;4.29;49.60;100967.91;5024716;28;20068;-74
2022/02/27 08:28:47;;;;;;;3.85;2.13;;;;;;;4.39;49.04;100976.56;4992586;28;20044;-75
2022/02/27 08:31:12;;;;;;;5.00;2.50;;;;;;;4.47;49.00;100971.31;5016629;28;20048;-74
2022/02/27 08:33:38;;;;;;;7.13;2.20;;;;;;;4.56;48.93;100976.50;5016797;28;20053;-74
2022/02/27 08:36:04;;;;;;;3.28;2.13;;;;;;;4.66;48.90;100972.09;5009514;28;20101;-74
2022/02/27 08:38:30;;;;;;;2.95;2.13;;;;;;;4.73;48.27;100976.41;5014703;28;20169;-74
2022/02/27 08:40:56;;;;;;;5.25;2.25;;;;;;;4.82;47.75;100976.31;5013956;28;20041;-74
2022/02/27 08:43:22;;;;;;;7.50;2.60;;;;;;;4.88;47.59;100973.69;5013183;28;20091;-75
2022/02/27 08:45:48;;;;;;;3.40;1.98;;;;;;;4.93;47.14;100971.91;5015278;28;20556;-73
2022/02/27 08:48:14;;;;;;;7.07;2.60;;;;;;;5.06;47.88;100977.91;5020933;28;20398;-74
2022/02/27 08:50:40;;;;;;;6.10;2.33;;;;;;;5.16;47.55;100973.47;5017270;28;20045;-69
2022/02/27 08:53:05;;;;;;;8.77;2.55;;;;;;;5.38;47.56;100972.41;5018409;28;20041;-68
2022/02/27 08:55:30;;;;;;;4.00;1.90;;;;;;;5.50;46.04;100983.66;5018846;28;20037;-68
2022/02/27 08:57:56;;;;;;;4.45;2.47;;;;;;;5.60;47.45;100975.69;5015503;28;20030;-69
2022/02/27 09:00:22;;;;;;;4.75;2.58;;;;;;;5.74;45.42;100964.25;5009541;28;20034;-68
2022/02/27 09:02:47;;;;;;;5.80;3.17;;;;;;;5.91;44.78;100969.31;5010604;28;20060;-69
2022/02/27 09:05:13;;;;;;;3.42;2.03;;;;;;;6.09;45.14;100963.88;5010622;28;20069;-70
2022/02/27 09:07:39;;;;;;;14.23;2.97;;;;;;;6.33;43.67;100965.34;5009561;28;20508;-69
2022/02/27 09:10:05;;;;;;;5.25;1.83;;;;;;;6.80;42.88;100984.78;5009565;28;20494;-67
2022/02/27 09:12:31;;;;;;;7.93;2.10;;;;;;;8.12;40.57;100973.75;5009955;28;20570;-68
2022/02/27 09:14:57;;;;;;;3.75;1.70;;;;;;;9.44;38.51;100966.41;5009565;28;20170;-69
2022/02/27 09:17:23;;;;;;;3.28;2.38;;;;;;;10.46;35.30;100967.16;5009464;28;20037;-67
2022/02/27 09:19:49;;;;;;;4.97;2.47;;;;;;;11.25;33.14;100957.63;5009321;28;20030;-68
2022/02/27 09:22:15;;;;;;;5.60;2.42;;;;;;;11.61;32.56;100965.22;5010104;28;20034;-69
2022/02/27 09:24:40;;;;;;;6.03;2.60;;;;;;;12.17;31.97;100967.63;4982460;28;20033;-68
2022/02/27 09:27:06;;;;;;;6.22;2.40;;;;;;;12.56;30.90;100960.91;4998476;28;20030;-70
2022/02/27 09:29:31;;;;;;;4.43;2.38;;;;;;;12.87;30.46;100963.19;5005100;28;20046;-69
2022/02/27 09:31:57;;;;;;;5.05;2.63;;;;;;;13.25;29.68;100971.41;5023654;28;20095;-68
2022/02/27 09:34:22;;;;;;;3.45;1.85;;;;;;;13.37;29.52;100970.91;5023842;28;20080;-68
2022/02/27 09:36:48;;;;;;;7.10;3.10;;;;;;;13.62;29.19;100960.13;4996142;28;20088;-68
2022/02/27 09:39:13;;;;;;;6.03;3.00;;;;;;;14.01;27.75;100972.56;5021617;28;20037;-68
2022/02/27 09:41:39;;;;;;;5.18;2.50;;;;;;;14.17;27.92;100965.63;5019445;28;20030;-69
2022/02/27 09:44:06;;;;;;;4.05;2.10;;;;;;;15.02;28.03;100964.38;5019798;28;20029;-68
2022/02/27 09:46:32;;;;;;;4.15;2.25;;;;;;;15.35;27.37;100964.47;5023504;28;20103;-72
2022/02/27 09:48:58;;;;;;;6.15;3.58;;;;;;;15.65;25.89;100962.09;5020107;28;20029;-72
2022/02/27 09:51:25;;;;;;;3.53;2.08;;;;;;;16.06;25.22;100961.72;5018577;28;20068;-73
2022/02/27 09:53:51;;;;;;;3.97;2.38;;;;;;;16.14;24.64;100963.13;5007856;28;20123;-74
2022/02/27 09:56:17;;;;;;;5.10;2.45;;;;;;;16.40;25.11;100962.59;5022901;28;20045;-73
2022/02/27 09:58:43;;;;;;;3.72;1.80;;;;;;;16.21;24.57;100975.16;5026926;28;20076;-73
2022/02/27 10:01:09;;;;;;;6.85;2.17;;;;;;;15.45;24.74;100963.06;5029395;28;20057;-74
2022/02/27 10:03:35;;;;;;;5.60;2.28;;;;;;;15.57;25.17;100974.88;5026855;28;20138;-75
2022/02/27 10:06:06;;;;;;;9.88;3.03;;;;;;;15.85;24.92;100961.09;5023876;28;20029;-73
2022/02/27 10:08:44;;;;;;;5.57;2.55;;;;;;;15.84;24.60;100971.78;5024360;28;20041;-74
2022/02/27 10:11:18;;;;;;;3.47;2.30;;;;;;;15.53;24.55;100962.72;5008109;28;20061;-73
2022/02/27 10:13:50;;;;;;;4.03;2.10;;;;;;;15.52;24.81;100968.09;5012619;28;20048;-74
2022/02/27 10:16:25;;;;;;;5.22;2.42;;;;;;;15.98;24.35;100963.94;5022998;28;20044;-74
2022/02/27 10:18:56;;;;;;;5.57;2.50;;;;;;;16.35;24.12;100955.81;5004664;28;20030;-75
2022/02/27 10:21:34;;;;;;;6.55;2.58;;;;;;;16.55;23.66;100955.56;5004578;28;20056;-73
2022/02/27 10:24:14;;;;;;;7.63;2.03;;;;;;;16.43;23.69;100958.91;5003771;28;20061;-72
2022/02/27 10:26:43;;;;;;;3.65;2.20;;;;;;;16.61;23.69;100951.69;5016988;28;20033;-72
2022/02/27 10:29:16;;;;;;;4.65;2.30;;;;;;;16.71;23.23;100952.88;5021750;28;20037;-71
2022/02/27 10:31:46;;;;;;;5.53;2.40;;;;;;;16.54;23.19;100948.53;4997512;28;20405;-73
2022/02/27 10:34:22;;;;;;;4.22;2.58;;;;;;;16.09;22.92;100942.94;5003378;28;20486;-73
2022/02/27 10:36:59;;;;;;;3.83;2.20;;;;;;;16.00;23.10;100948.78;5002498;28;20133;-74
2022/02/27 10:39:26;;;;;;;3.50;1.80;;;;;;;15.65;23.25;100943.47;5003068;28;20141;-73
2022/02/27 10:41:52;;;;;;;7.10;3.00;;;;;;;15.67;23.79;100938.06;5003469;28;20030;-74
2022/02/27 10:44:24;;;;;;;4.35;2.55;;;;;;;15.38;23.78;100937.78;5001531;28;20153;-74
2022/02/27 10:47:13;;;;;;;3.78;2.00;;;;;;;14.63;25.17;100936.16;5002648;28;20041;-75
2022/02/27 10:49:39;;;;;;;3.05;1.88;;;;;;;14.01;25.88;100940.75;5003117;28;20034;-72
2022/02/27 10:52:15;;;;;;;5.38;1.75;;;;;;;13.55;26.68;100939.28;5002861;28;20034;-76
2022/02/27 10:54:43;;;;;;;5.00;1.80;;;;;;;12.97;26.91;100934.56;5003094;28;20052;-73
2022/02/27 10:57:28;;;;;;;3.15;1.67;;;;;;;12.24;27.74;100942.69;5001022;28;20129;-74
2022/02/27 10:59:55;;;;;;;3.50;2.10;;;;;;;11.63;28.83;100939.59;5004459;28;20112;-76
2022/02/27 11:02:23;;;;;;;7.07;2.67;;;;;;;11.16;29.22;100934.19;5007183;28;20643;-77
2022/02/27 11:04:50;;;;;;;4.20;1.90;;;;;;;11.07;29.88;100937.09;5007456;28;20038;-73
2022/02/27 11:07:15;;;;;;;3.72;2.88;;;;;;;10.68;30.39;100935.72;5005553;28;20176;-73
2022/02/27 11:09:44;;;;;;;5.55;2.42;;;;;;;10.40;30.79;100930.41;5007112;28;20132;-72
2022/02/27 11:12:11;;;;;;;4.82;2.40;;;;;;;10.32;31.10;100930.63;5007190;28;20045;-74
2022/02/27 11:14:36;;;;;;;3.97;2.00;;;;;;;10.12;30.70;100932.13;5007328;28;20409;-74
2022/02/27 11:17:02;;;;;;;3.80;1.80;;;;;;;10.02;30.95;100932.38;5006291;28;20041;-73
2022/02/27 11:19:28;;;;;;;5.25;2.85;;;;;;;9.88;31.45;100938.00;5008073;28;20041;-75
2022/02/27 11:21:54;;;;;;;8.10;3.22;;;;;;;9.76;32.28;100927.81;5006948;28;20034;-74
2022/02/27 11:24:20;;;;;;;3.63;2.50;;;;;;;9.71;31.53;100927.09;5008763;28;20048;-74
2022/02/27 11:26:45;;;;;;;4.75;2.40;;;;;;;9.67;31.75;100933.34;5008054;28;20026;-74